sensor_id;sensor_type;location;lat;lon;timestamp;P1;durP1;ratioP1;P2;durP2;ratioP2
22455;SDS011;11395;53.204;6.502;2022-12-07T00:05:31;1.23;;;1.10;;
22455;SDS011;11395;53.204;6.502;2022-12-07T00:07:58;1.20;;;1.10;;
22455;SDS011;11395;53.204;6.502;2022-12-07T00:10:24;1.27;;;1.17;;
22455;SDS011;11395;53.204;6.502;2022-12-07T00:12:50;0.90;;;0.90;;
22455;SDS011;11395;53.204;6.502;2022-12-07T00:15:16;1.27;;;1.23;;
22455;SDS011;11395;53.204;6.502;2022-12-07T00:17:42;1.43;;;1.17;;
22455;SDS011;11395;53.204;6.502;2022-12-07T00:20:09;1.07;;;1.00;;
22455;SDS011;11395;53.204;6.502;2022-12-07T00:22:35;0.90;;;0.90;;
22455;SDS011;11395;53.204;6.502;2022-12-07T00:25:01;1.10;;;1.00;;
22455;SDS011;11395;53.204;6.502;2022-12-07T00:27:28;1.07;;;1.00;;
22455;SDS011;11395;53.204;6.502;2022-12-07T00:29:54;0.90;;;0.90;;
22455;SDS011;11395;53.204;6.502;2022-12-07T00:32:20;1.10;;;1.10;;
22455;SDS011;11395;53.204;6.502;2022-12-07T00:34:46;1.10;;;1.10;;
22455;SDS011;11395;53.204;6.502;2022-12-07T00:37:12;1.10;;;1.10;;
22455;SDS011;11395;53.204;6.502;2022-12-07T00:39:39;1.00;;;1.00;;
22455;SDS011;11395;53.204;6.502;2022-12-07T00:42:05;1.40;;;1.30;;
22455;SDS011;11395;53.204;6.502;2022-12-07T00:44:37;1.07;;;0.97;;
22455;SDS011;11395;53.204;6.502;2022-12-07T00:47:04;1.37;;;1.03;;
22455;SDS011;11395;53.204;6.502;2022-12-07T00:49:30;1.00;;;1.00;;
22455;SDS011;11395;53.204;6.502;2022-12-07T00:51:56;1.03;;;1.03;;
22455;SDS011;11395;53.204;6.502;2022-12-07T00:54:22;1.43;;;1.20;;
22455;SDS011;11395;53.204;6.502;2022-12-07T00:56:49;1.13;;;1.03;;
22455;SDS011;11395;53.204;6.502;2022-12-07T00:59:15;1.20;;;1.20;;
22455;SDS011;11395;53.204;6.502;2022-12-07T01:05:29;1.30;;;1.20;;
22455;SDS011;11395;53.204;6.502;2022-12-07T01:07:56;1.20;;;1.10;;
22455;SDS011;11395;53.204;6.502;2022-12-07T01:10:22;1.10;;;1.10;;
22455;SDS011;11395;53.204;6.502;2022-12-07T01:12:48;1.63;;;1.10;;
22455;SDS011;11395;53.204;6.502;2022-12-07T01:15:14;0.83;;;0.83;;
22455;SDS011;11395;53.204;6.502;2022-12-07T01:17:41;1.30;;;1.20;;
22455;SDS011;11395;53.204;6.502;2022-12-07T01:20:07;0.80;;;0.80;;
22455;SDS011;11395;53.204;6.502;2022-12-07T01:22:37;1.17;;;0.90;;
22455;SDS011;11395;53.204;6.502;2022-12-07T01:25:05;1.00;;;0.90;;
22455;SDS011;11395;53.204;6.502;2022-12-07T01:27:32;0.80;;;0.80;;
22455;SDS011;11395;53.204;6.502;2022-12-07T01:29:59;1.00;;;0.93;;
22455;SDS011;11395;53.204;6.502;2022-12-07T01:32:26;1.03;;;0.90;;
22455;SDS011;11395;53.204;6.502;2022-12-07T01:34:53;1.03;;;1.03;;
22455;SDS011;11395;53.204;6.502;2022-12-07T01:37:19;1.10;;;1.10;;
22455;SDS011;11395;53.204;6.502;2022-12-07T01:39:48;0.97;;;0.97;;
22455;SDS011;11395;53.204;6.502;2022-12-07T01:42:15;0.93;;;0.90;;
22455;SDS011;11395;53.204;6.502;2022-12-07T01:47:46;0.90;;;0.90;;
22455;SDS011;11395;53.204;6.502;2022-12-07T01:50:22;0.80;;;0.80;;
22455;SDS011;11395;53.204;6.502;2022-12-07T01:52:52;1.00;;;1.00;;
22455;SDS011;11395;53.204;6.502;2022-12-07T01:55:21;1.00;;;1.00;;
22455;SDS011;11395;53.204;6.502;2022-12-07T01:57:49;1.17;;;1.03;;
22455;SDS011;11395;53.204;6.502;2022-12-07T02:09:31;0.90;;;0.90;;
22455;SDS011;11395;53.204;6.502;2022-12-07T02:11:57;1.00;;;1.00;;
22455;SDS011;11395;53.204;6.502;2022-12-07T02:14:23;1.13;;;1.10;;
22455;SDS011;11395;53.204;6.502;2022-12-07T02:28:35;0.70;;;0.70;;
22455;SDS011;11395;53.204;6.502;2022-12-07T02:31:21;1.00;;;1.00;;
22455;SDS011;11395;53.204;6.502;2022-12-07T02:33:54;1.00;;;1.00;;
22455;SDS011;11395;53.204;6.502;2022-12-07T02:36:30;0.90;;;0.90;;
22455;SDS011;11395;53.204;6.502;2022-12-07T02:39:06;1.07;;;0.80;;
22455;SDS011;11395;53.204;6.502;2022-12-07T02:41:51;0.80;;;0.80;;
22455;SDS011;11395;53.204;6.502;2022-12-07T02:44:22;2.13;;;0.93;;
22455;SDS011;11395;53.204;6.502;2022-12-07T02:46:52;0.83;;;0.83;;
22455;SDS011;11395;53.204;6.502;2022-12-07T02:49:23;2.10;;;0.90;;
22455;SDS011;11395;53.204;6.502;2022-12-07T02:51:51;0.83;;;0.83;;
22455;SDS011;11395;53.204;6.502;2022-12-07T02:54:19;1.10;;;1.00;;
22455;SDS011;11395;53.204;6.502;2022-12-07T02:56:50;1.00;;;0.90;;
22455;SDS011;11395;53.204;6.502;2022-12-07T03:09:44;1.00;;;1.00;;
22455;SDS011;11395;53.204;6.502;2022-12-07T03:16:02;1.17;;;1.17;;
22455;SDS011;11395;53.204;6.502;2022-12-07T03:18:16;0.90;;;0.90;;
22455;SDS011;11395;53.204;6.502;2022-12-07T03:20:46;0.80;;;0.80;;
22455;SDS011;11395;53.204;6.502;2022-12-07T03:23:15;0.80;;;0.80;;
22455;SDS011;11395;53.204;6.502;2022-12-07T03:25:48;0.80;;;0.80;;
22455;SDS011;11395;53.204;6.502;2022-12-07T03:28:18;1.10;;;1.00;;
22455;SDS011;11395;53.204;6.502;2022-12-07T03:30:52;0.80;;;0.80;;
22455;SDS011;11395;53.204;6.502;2022-12-07T03:33:28;0.83;;;0.83;;
22455;SDS011;11395;53.204;6.502;2022-12-07T03:36:09;1.07;;;0.97;;
22455;SDS011;11395;53.204;6.502;2022-12-07T03:39:02;0.80;;;0.80;;
22455;SDS011;11395;53.204;6.502;2022-12-07T03:41:35;1.20;;;0.97;;
22455;SDS011;11395;53.204;6.502;2022-12-07T03:44:03;1.20;;;1.00;;
22455;SDS011;11395;53.204;6.502;2022-12-07T03:49:45;1.00;;;0.90;;
22455;SDS011;11395;53.204;6.502;2022-12-07T03:57:21;0.67;;;0.67;;
22455;SDS011;11395;53.204;6.502;2022-12-07T03:59:48;1.10;;;0.90;;
22455;SDS011;11395;53.204;6.502;2022-12-07T04:09:31;0.97;;;0.97;;
22455;SDS011;11395;53.204;6.502;2022-12-07T04:11:57;0.90;;;0.90;;
22455;SDS011;11395;53.204;6.502;2022-12-07T04:14:24;1.13;;;1.00;;
22455;SDS011;11395;53.204;6.502;2022-12-07T04:16:51;0.83;;;0.83;;
22455;SDS011;11395;53.204;6.502;2022-12-07T04:19:20;0.90;;;0.90;;
22455;SDS011;11395;53.204;6.502;2022-12-07T04:21:47;0.90;;;0.80;;
22455;SDS011;11395;53.204;6.502;2022-12-07T04:24:14;1.10;;;1.00;;
22455;SDS011;11395;53.204;6.502;2022-12-07T04:26:41;0.77;;;0.77;;
22455;SDS011;11395;53.204;6.502;2022-12-07T04:29:08;1.07;;;0.83;;
22455;SDS011;11395;53.204;6.502;2022-12-07T04:31:35;0.80;;;0.80;;
22455;SDS011;11395;53.204;6.502;2022-12-07T04:34:02;1.43;;;1.20;;
22455;SDS011;11395;53.204;6.502;2022-12-07T04:36:28;0.70;;;0.70;;
22455;SDS011;11395;53.204;6.502;2022-12-07T04:38:55;1.00;;;0.90;;
22455;SDS011;11395;53.204;6.502;2022-12-07T04:41:22;0.83;;;0.83;;
22455;SDS011;11395;53.204;6.502;2022-12-07T04:43:53;0.90;;;0.90;;
22455;SDS011;11395;53.204;6.502;2022-12-07T04:46:21;0.80;;;0.80;;
22455;SDS011;11395;53.204;6.502;2022-12-07T04:48:48;0.87;;;0.87;;
22455;SDS011;11395;53.204;6.502;2022-12-07T04:51:16;0.87;;;0.87;;
22455;SDS011;11395;53.204;6.502;2022-12-07T04:53:45;1.10;;;1.00;;
22455;SDS011;11395;53.204;6.502;2022-12-07T04:56:13;0.70;;;0.70;;
22455;SDS011;11395;53.204;6.502;2022-12-07T04:58:40;0.70;;;0.70;;
22455;SDS011;11395;53.204;6.502;2022-12-07T05:01:07;0.60;;;0.60;;
22455;SDS011;11395;53.204;6.502;2022-12-07T05:03:33;0.80;;;0.80;;
22455;SDS011;11395;53.204;6.502;2022-12-07T05:06:00;1.17;;;0.80;;
22455;SDS011;11395;53.204;6.502;2022-12-07T05:08:27;0.90;;;0.90;;
22455;SDS011;11395;53.204;6.502;2022-12-07T05:10:53;0.97;;;0.97;;
22455;SDS011;11395;53.204;6.502;2022-12-07T05:13:19;0.87;;;0.87;;
22455;SDS011;11395;53.204;6.502;2022-12-07T05:15:49;1.83;;;1.00;;
22455;SDS011;11395;53.204;6.502;2022-12-07T05:18:15;0.80;;;0.80;;
22455;SDS011;11395;53.204;6.502;2022-12-07T05:20:42;0.70;;;0.70;;
22455;SDS011;11395;53.204;6.502;2022-12-07T05:23:09;0.80;;;0.80;;
22455;SDS011;11395;53.204;6.502;2022-12-07T05:25:36;1.37;;;0.90;;
22455;SDS011;11395;53.204;6.502;2022-12-07T05:28:02;1.13;;;1.03;;
22455;SDS011;11395;53.204;6.502;2022-12-07T05:30:29;0.90;;;0.90;;
22455;SDS011;11395;53.204;6.502;2022-12-07T05:32:55;0.80;;;0.80;;
22455;SDS011;11395;53.204;6.502;2022-12-07T05:35:22;0.90;;;0.90;;
22455;SDS011;11395;53.204;6.502;2022-12-07T05:37:48;0.80;;;0.80;;
22455;SDS011;11395;53.204;6.502;2022-12-07T05:40:14;1.13;;;0.90;;
22455;SDS011;11395;53.204;6.502;2022-12-07T05:42:41;0.90;;;0.90;;
22455;SDS011;11395;53.204;6.502;2022-12-07T05:45:08;0.70;;;0.70;;
22455;SDS011;11395;53.204;6.502;2022-12-07T05:47:35;2.60;;;0.90;;
22455;SDS011;11395;53.204;6.502;2022-12-07T05:50:02;1.17;;;0.90;;
22455;SDS011;11395;53.204;6.502;2022-12-07T05:52:29;0.80;;;0.80;;
22455;SDS011;11395;53.204;6.502;2022-12-07T05:54:55;0.80;;;0.80;;
22455;SDS011;11395;53.204;6.502;2022-12-07T05:57:22;0.93;;;0.90;;
22455;SDS011;11395;53.204;6.502;2022-12-07T05:59:48;0.90;;;0.90;;
22455;SDS011;11395;53.204;6.502;2022-12-07T06:02:14;0.73;;;0.73;;
22455;SDS011;11395;53.204;6.502;2022-12-07T06:04:43;1.07;;;0.90;;
22455;SDS011;11395;53.204;6.502;2022-12-07T06:07:13;1.17;;;0.93;;
22455;SDS011;11395;53.204;6.502;2022-12-07T06:09:40;1.10;;;1.00;;
22455;SDS011;11395;53.204;6.502;2022-12-07T06:12:08;2.77;;;1.10;;
22455;SDS011;11395;53.204;6.502;2022-12-07T06:14:56;1.00;;;0.80;;
22455;SDS011;11395;53.204;6.502;2022-12-07T06:17:23;0.80;;;0.80;;
22455;SDS011;11395;53.204;6.502;2022-12-07T06:19:50;1.10;;;1.00;;
22455;SDS011;11395;53.204;6.502;2022-12-07T06:22:16;1.23;;;0.87;;
22455;SDS011;11395;53.204;6.502;2022-12-07T06:24:43;0.70;;;0.70;;
22455;SDS011;11395;53.204;6.502;2022-12-07T06:27:09;0.70;;;0.70;;
22455;SDS011;11395;53.204;6.502;2022-12-07T06:29:36;0.80;;;0.80;;
22455;SDS011;11395;53.204;6.502;2022-12-07T06:32:02;1.20;;;1.10;;
22455;SDS011;11395;53.204;6.502;2022-12-07T06:34:29;1.00;;;0.83;;
22455;SDS011;11395;53.204;6.502;2022-12-07T06:36:55;0.80;;;0.80;;
22455;SDS011;11395;53.204;6.502;2022-12-07T06:39:23;3.23;;;1.10;;
22455;SDS011;11395;53.204;6.502;2022-12-07T06:41:51;0.93;;;0.70;;
22455;SDS011;11395;53.204;6.502;2022-12-07T06:44:18;0.70;;;0.70;;
22455;SDS011;11395;53.204;6.502;2022-12-07T06:46:44;1.93;;;0.80;;
22455;SDS011;11395;53.204;6.502;2022-12-07T06:49:10;0.73;;;0.73;;
22455;SDS011;11395;53.204;6.502;2022-12-07T06:51:37;1.00;;;0.90;;
22455;SDS011;11395;53.204;6.502;2022-12-07T06:54:07;0.70;;;0.70;;
22455;SDS011;11395;53.204;6.502;2022-12-07T06:56:34;1.57;;;1.00;;
22455;SDS011;11395;53.204;6.502;2022-12-07T06:59:00;0.70;;;0.70;;
22455;SDS011;11395;53.204;6.502;2022-12-07T07:01:27;1.27;;;0.90;;
22455;SDS011;11395;53.204;6.502;2022-12-07T07:03:53;1.17;;;0.70;;
22455;SDS011;11395;53.204;6.502;2022-12-07T07:06:19;0.97;;;0.90;;
22455;SDS011;11395;53.204;6.502;2022-12-07T07:08:45;0.70;;;0.70;;
22455;SDS011;11395;53.204;6.502;2022-12-07T07:11:12;0.90;;;0.87;;
22455;SDS011;11395;53.204;6.502;2022-12-07T07:13:38;0.80;;;0.80;;
22455;SDS011;11395;53.204;6.502;2022-12-07T07:16:05;2.17;;;1.10;;
22455;SDS011;11395;53.204;6.502;2022-12-07T07:18:32;1.77;;;0.80;;
22455;SDS011;11395;53.204;6.502;2022-12-07T07:20:58;2.40;;;1.00;;
22455;SDS011;11395;53.204;6.502;2022-12-07T07:23:25;2.00;;;1.20;;
22455;SDS011;11395;53.204;6.502;2022-12-07T07:25:51;0.90;;;0.90;;
22455;SDS011;11395;53.204;6.502;2022-12-07T07:28:17;0.80;;;0.80;;
22455;SDS011;11395;53.204;6.502;2022-12-07T07:30:43;1.57;;;1.00;;
22455;SDS011;11395;53.204;6.502;2022-12-07T07:33:10;1.73;;;0.90;;
22455;SDS011;11395;53.204;6.502;2022-12-07T07:35:37;1.00;;;0.90;;
22455;SDS011;11395;53.204;6.502;2022-12-07T07:38:04;1.27;;;0.80;;
22455;SDS011;11395;53.204;6.502;2022-12-07T07:40:31;0.83;;;0.80;;
22455;SDS011;11395;53.204;6.502;2022-12-07T07:42:58;1.13;;;1.00;;
22455;SDS011;11395;53.204;6.502;2022-12-07T07:45:24;0.90;;;0.80;;
22455;SDS011;11395;53.204;6.502;2022-12-07T07:47:52;0.97;;;0.93;;
22455;SDS011;11395;53.204;6.502;2022-12-07T07:50:18;1.00;;;0.87;;
22455;SDS011;11395;53.204;6.502;2022-12-07T07:52:45;1.10;;;1.00;;
22455;SDS011;11395;53.204;6.502;2022-12-07T07:55:12;1.90;;;0.87;;
22455;SDS011;11395;53.204;6.502;2022-12-07T07:57:38;0.87;;;0.70;;
22455;SDS011;11395;53.204;6.502;2022-12-07T08:00:07;1.20;;;0.90;;
22455;SDS011;11395;53.204;6.502;2022-12-07T08:02:41;1.53;;;0.80;;
22455;SDS011;11395;53.204;6.502;2022-12-07T08:05:11;1.00;;;1.00;;
22455;SDS011;11395;53.204;6.502;2022-12-07T08:07:39;1.27;;;1.10;;
22455;SDS011;11395;53.204;6.502;2022-12-07T08:10:05;0.90;;;0.90;;
22455;SDS011;11395;53.204;6.502;2022-12-07T08:12:35;1.10;;;0.90;;
22455;SDS011;11395;53.204;6.502;2022-12-07T08:15:03;1.20;;;1.10;;
22455;SDS011;11395;53.204;6.502;2022-12-07T08:17:29;2.23;;;1.27;;
22455;SDS011;11395;53.204;6.502;2022-12-07T08:19:55;1.07;;;0.90;;
22455;SDS011;11395;53.204;6.502;2022-12-07T08:22:22;0.90;;;0.90;;
22455;SDS011;11395;53.204;6.502;2022-12-07T08:24:48;1.40;;;1.00;;
22455;SDS011;11395;53.204;6.502;2022-12-07T08:27:14;2.23;;;1.50;;
22455;SDS011;11395;53.204;6.502;2022-12-07T08:29:40;2.20;;;1.20;;
22455;SDS011;11395;53.204;6.502;2022-12-07T08:32:06;1.90;;;1.00;;
22455;SDS011;11395;53.204;6.502;2022-12-07T08:34:33;1.27;;;1.10;;
22455;SDS011;11395;53.204;6.502;2022-12-07T08:36:59;1.80;;;1.30;;
22455;SDS011;11395;53.204;6.502;2022-12-07T08:39:26;1.73;;;1.10;;
22455;SDS011;11395;53.204;6.502;2022-12-07T08:41:52;2.30;;;1.10;;
22455;SDS011;11395;53.204;6.502;2022-12-07T08:44:18;1.77;;;1.67;;
22455;SDS011;11395;53.204;6.502;2022-12-07T08:46:48;2.17;;;1.00;;
22455;SDS011;11395;53.204;6.502;2022-12-07T08:49:31;2.57;;;1.10;;
22455;SDS011;11395;53.204;6.502;2022-12-07T08:52:02;1.63;;;1.10;;
22455;SDS011;11395;53.204;6.502;2022-12-07T08:54:30;1.07;;;1.07;;
22455;SDS011;11395;53.204;6.502;2022-12-07T08:56:58;1.37;;;1.03;;
22455;SDS011;11395;53.204;6.502;2022-12-07T08:59:24;2.57;;;1.30;;
22455;SDS011;11395;53.204;6.502;2022-12-07T09:01:51;1.03;;;0.97;;
22455;SDS011;11395;53.204;6.502;2022-12-07T09:04:18;1.57;;;1.10;;
22455;SDS011;11395;53.204;6.502;2022-12-07T09:06:44;2.23;;;1.13;;
22455;SDS011;11395;53.204;6.502;2022-12-07T09:09:11;1.30;;;1.20;;
22455;SDS011;11395;53.204;6.502;2022-12-07T09:11:39;2.23;;;1.07;;
22455;SDS011;11395;53.204;6.502;2022-12-07T09:14:05;1.23;;;1.13;;
22455;SDS011;11395;53.204;6.502;2022-12-07T09:16:32;2.77;;;1.40;;
22455;SDS011;11395;53.204;6.502;2022-12-07T09:18:58;3.13;;;1.60;;
22455;SDS011;11395;53.204;6.502;2022-12-07T09:21:24;2.03;;;1.20;;
22455;SDS011;11395;53.204;6.502;2022-12-07T09:23:50;5.10;;;1.60;;
22455;SDS011;11395;53.204;6.502;2022-12-07T09:26:16;3.03;;;1.30;;
22455;SDS011;11395;53.204;6.502;2022-12-07T09:28:43;6.30;;;1.40;;
22455;SDS011;11395;53.204;6.502;2022-12-07T09:31:09;2.23;;;1.43;;
22455;SDS011;11395;53.204;6.502;2022-12-07T09:33:35;4.30;;;1.40;;
22455;SDS011;11395;53.204;6.502;2022-12-07T09:36:02;3.17;;;1.53;;
22455;SDS011;11395;53.204;6.502;2022-12-07T09:38:29;1.83;;;1.20;;
22455;SDS011;11395;53.204;6.502;2022-12-07T09:40:58;2.80;;;1.60;;
22455;SDS011;11395;53.204;6.502;2022-12-07T09:43:33;4.93;;;1.47;;
22455;SDS011;11395;53.204;6.502;2022-12-07T09:46:02;3.13;;;1.40;;
22455;SDS011;11395;53.204;6.502;2022-12-07T09:48:30;4.63;;;1.10;;
22455;SDS011;11395;53.204;6.502;2022-12-07T09:51:02;5.47;;;1.57;;
22455;SDS011;11395;53.204;6.502;2022-12-07T09:53:37;2.07;;;1.63;;
22455;SDS011;11395;53.204;6.502;2022-12-07T09:56:03;2.17;;;1.50;;
22455;SDS011;11395;53.204;6.502;2022-12-07T09:58:31;4.07;;;1.27;;
22455;SDS011;11395;53.204;6.502;2022-12-07T10:00:59;3.20;;;1.30;;
22455;SDS011;11395;53.204;6.502;2022-12-07T10:03:36;3.17;;;1.50;;
22455;SDS011;11395;53.204;6.502;2022-12-07T10:06:05;2.40;;;1.20;;
22455;SDS011;11395;53.204;6.502;2022-12-07T10:08:32;2.53;;;1.50;;
22455;SDS011;11395;53.204;6.502;2022-12-07T10:10:59;3.27;;;1.50;;
22455;SDS011;11395;53.204;6.502;2022-12-07T10:16:39;2.57;;;1.27;;
22455;SDS011;11395;53.204;6.502;2022-12-07T10:24:40;2.03;;;1.27;;
22455;SDS011;11395;53.204;6.502;2022-12-07T10:27:29;1.73;;;1.13;;
22455;SDS011;11395;53.204;6.502;2022-12-07T10:29:57;2.40;;;1.20;;
22455;SDS011;11395;53.204;6.502;2022-12-07T10:34:50;2.33;;;1.30;;
22455;SDS011;11395;53.204;6.502;2022-12-07T10:37:39;1.30;;;1.20;;
22455;SDS011;11395;53.204;6.502;2022-12-07T10:40:23;2.00;;;1.20;;
22455;SDS011;11395;53.204;6.502;2022-12-07T10:43:05;2.37;;;1.40;;
22455;SDS011;11395;53.204;6.502;2022-12-07T10:48:29;2.43;;;1.13;;
22455;SDS011;11395;53.204;6.502;2022-12-07T10:51:27;1.57;;;1.20;;
22455;SDS011;11395;53.204;6.502;2022-12-07T10:54:27;1.97;;;1.00;;
22455;SDS011;11395;53.204;6.502;2022-12-07T10:59:45;2.17;;;1.00;;
22455;SDS011;11395;53.204;6.502;2022-12-07T11:14:31;3.30;;;1.40;;
22455;SDS011;11395;53.204;6.502;2022-12-07T11:17:13;2.57;;;1.60;;
22455;SDS011;11395;53.204;6.502;2022-12-07T11:33:47;1.90;;;1.37;;
22455;SDS011;11395;53.204;6.502;2022-12-07T11:36:45;1.40;;;1.30;;
22455;SDS011;11395;53.204;6.502;2022-12-07T11:39:26;1.40;;;1.20;;
22455;SDS011;11395;53.204;6.502;2022-12-07T11:42:04;4.10;;;1.60;;
22455;SDS011;11395;53.204;6.502;2022-12-07T11:47:16;1.67;;;1.50;;
22455;SDS011;11395;53.204;6.502;2022-12-07T11:52:25;2.00;;;1.43;;
22455;SDS011;11395;53.204;6.502;2022-12-07T11:58:51;1.77;;;1.37;;
22455;SDS011;11395;53.204;6.502;2022-12-07T12:01:11;3.00;;;1.17;;
22455;SDS011;11395;53.204;6.502;2022-12-07T12:03:40;1.97;;;1.20;;
22455;SDS011;11395;53.204;6.502;2022-12-07T12:06:31;3.60;;;1.20;;
22455;SDS011;11395;53.204;6.502;2022-12-07T12:22:34;1.37;;;1.27;;
22455;SDS011;11395;53.204;6.502;2022-12-07T12:25:05;1.73;;;1.37;;
22455;SDS011;11395;53.204;6.502;2022-12-07T12:27:41;1.93;;;1.37;;
22455;SDS011;11395;53.204;6.502;2022-12-07T12:30:29;2.00;;;1.20;;
22455;SDS011;11395;53.204;6.502;2022-12-07T12:33:06;2.13;;;1.40;;
22455;SDS011;11395;53.204;6.502;2022-12-07T12:35:38;1.50;;;1.17;;
22455;SDS011;11395;53.204;6.502;2022-12-07T12:40:48;1.67;;;1.10;;
22455;SDS011;11395;53.204;6.502;2022-12-07T12:49:30;1.47;;;1.03;;
22455;SDS011;11395;53.204;6.502;2022-12-07T12:52:47;1.20;;;1.10;;
22455;SDS011;11395;53.204;6.502;2022-12-07T12:57:39;2.43;;;1.43;;
22455;SDS011;11395;53.204;6.502;2022-12-07T13:00:22;2.60;;;1.10;;
22455;SDS011;11395;53.204;6.502;2022-12-07T13:02:54;2.77;;;1.17;;
22455;SDS011;11395;53.204;6.502;2022-12-07T13:05:26;1.20;;;1.03;;
22455;SDS011;11395;53.204;6.502;2022-12-07T13:07:57;1.13;;;1.00;;
22455;SDS011;11395;53.204;6.502;2022-12-07T13:18:14;2.20;;;1.47;;
22455;SDS011;11395;53.204;6.502;2022-12-07T13:25:59;1.27;;;1.00;;
22455;SDS011;11395;53.204;6.502;2022-12-07T13:36:53;1.83;;;0.97;;
22455;SDS011;11395;53.204;6.502;2022-12-07T13:39:21;1.53;;;0.83;;
22455;SDS011;11395;53.204;6.502;2022-12-07T13:41:50;1.50;;;0.90;;
22455;SDS011;11395;53.204;6.502;2022-12-07T13:44:26;3.77;;;0.90;;
22455;SDS011;11395;53.204;6.502;2022-12-07T13:47:16;1.07;;;0.97;;
22455;SDS011;11395;53.204;6.502;2022-12-07T13:49:55;1.27;;;0.80;;
22455;SDS011;11395;53.204;6.502;2022-12-07T13:52:29;1.13;;;1.00;;
22455;SDS011;11395;53.204;6.502;2022-12-07T13:57:32;1.00;;;0.90;;
22455;SDS011;11395;53.204;6.502;2022-12-07T14:00:02;1.80;;;1.03;;
22455;SDS011;11395;53.204;6.502;2022-12-07T14:02:32;1.00;;;0.97;;
22455;SDS011;11395;53.204;6.502;2022-12-07T14:05:12;1.73;;;0.90;;
22455;SDS011;11395;53.204;6.502;2022-12-07T14:10:25;1.27;;;1.00;;
22455;SDS011;11395;53.204;6.502;2022-12-07T14:12:54;1.93;;;1.03;;
22455;SDS011;11395;53.204;6.502;2022-12-07T14:15:22;1.57;;;0.97;;
22455;SDS011;11395;53.204;6.502;2022-12-07T14:17:53;1.77;;;1.17;;
22455;SDS011;11395;53.204;6.502;2022-12-07T14:20:31;1.13;;;0.90;;
22455;SDS011;11395;53.204;6.502;2022-12-07T14:23:00;0.80;;;0.80;;
22455;SDS011;11395;53.204;6.502;2022-12-07T14:25:47;0.83;;;0.83;;
22455;SDS011;11395;53.204;6.502;2022-12-07T14:28:28;1.20;;;0.90;;
22455;SDS011;11395;53.204;6.502;2022-12-07T14:30:55;1.20;;;1.10;;
22455;SDS011;11395;53.204;6.502;2022-12-07T14:33:21;2.90;;;0.93;;
22455;SDS011;11395;53.204;6.502;2022-12-07T14:35:49;1.03;;;0.90;;
22455;SDS011;11395;53.204;6.502;2022-12-07T14:38:15;1.97;;;0.97;;
22455;SDS011;11395;53.204;6.502;2022-12-07T14:40:44;1.00;;;0.90;;
22455;SDS011;11395;53.204;6.502;2022-12-07T14:43:14;1.53;;;1.10;;
22455;SDS011;11395;53.204;6.502;2022-12-07T14:45:42;0.83;;;0.83;;
22455;SDS011;11395;53.204;6.502;2022-12-07T14:48:15;1.00;;;0.97;;
22455;SDS011;11395;53.204;6.502;2022-12-07T14:50:45;0.80;;;0.80;;
22455;SDS011;11395;53.204;6.502;2022-12-07T14:53:17;0.90;;;0.90;;
22455;SDS011;11395;53.204;6.502;2022-12-07T14:55:55;0.80;;;0.80;;
22455;SDS011;11395;53.204;6.502;2022-12-07T14:58:21;1.63;;;0.80;;
22455;SDS011;11395;53.204;6.502;2022-12-07T15:00:48;0.93;;;0.90;;
22455;SDS011;11395;53.204;6.502;2022-12-07T15:03:15;1.10;;;0.90;;
22455;SDS011;11395;53.204;6.502;2022-12-07T15:05:44;1.07;;;0.80;;
22455;SDS011;11395;53.204;6.502;2022-12-07T15:08:21;0.80;;;0.80;;
22455;SDS011;11395;53.204;6.502;2022-12-07T15:10:47;1.37;;;0.80;;
22455;SDS011;11395;53.204;6.502;2022-12-07T15:13:13;1.07;;;1.00;;
22455;SDS011;11395;53.204;6.502;2022-12-07T15:15:59;1.93;;;0.90;;
22455;SDS011;11395;53.204;6.502;2022-12-07T15:18:28;0.80;;;0.80;;
22455;SDS011;11395;53.204;6.502;2022-12-07T15:20:54;1.03;;;0.93;;
22455;SDS011;11395;53.204;6.502;2022-12-07T15:23:20;0.83;;;0.70;;
22455;SDS011;11395;53.204;6.502;2022-12-07T15:25:47;0.73;;;0.73;;
22455;SDS011;11395;53.204;6.502;2022-12-07T15:28:14;0.90;;;0.90;;
22455;SDS011;11395;53.204;6.502;2022-12-07T15:30:44;0.73;;;0.73;;
22455;SDS011;11395;53.204;6.502;2022-12-07T15:33:11;1.20;;;1.10;;
22455;SDS011;11395;53.204;6.502;2022-12-07T15:35:44;1.10;;;1.00;;
22455;SDS011;11395;53.204;6.502;2022-12-07T15:38:14;1.43;;;0.90;;
22455;SDS011;11395;53.204;6.502;2022-12-07T15:41:00;2.20;;;0.90;;
22455;SDS011;11395;53.204;6.502;2022-12-07T15:43:27;2.07;;;1.23;;
22455;SDS011;11395;53.204;6.502;2022-12-07T15:46:14;1.83;;;1.20;;
22455;SDS011;11395;53.204;6.502;2022-12-07T15:48:45;1.20;;;1.10;;
22455;SDS011;11395;53.204;6.502;2022-12-07T15:51:11;1.80;;;1.03;;
22455;SDS011;11395;53.204;6.502;2022-12-07T15:53:38;3.30;;;1.47;;
22455;SDS011;11395;53.204;6.502;2022-12-07T15:56:08;5.00;;;1.10;;
22455;SDS011;11395;53.204;6.502;2022-12-07T15:58:34;2.07;;;1.37;;
22455;SDS011;11395;53.204;6.502;2022-12-07T16:01:00;1.20;;;1.10;;
22455;SDS011;11395;53.204;6.502;2022-12-07T16:03:38;2.80;;;1.20;;
22455;SDS011;11395;53.204;6.502;2022-12-07T16:06:05;6.00;;;1.40;;
22455;SDS011;11395;53.204;6.502;2022-12-07T16:08:31;2.03;;;0.97;;
22455;SDS011;11395;53.204;6.502;2022-12-07T16:10:58;5.87;;;1.37;;
22455;SDS011;11395;53.204;6.502;2022-12-07T16:13:24;3.17;;;1.23;;
22455;SDS011;11395;53.204;6.502;2022-12-07T16:15:50;2.70;;;1.20;;
22455;SDS011;11395;53.204;6.502;2022-12-07T16:18:16;2.13;;;1.33;;
22455;SDS011;11395;53.204;6.502;2022-12-07T16:20:42;2.97;;;1.23;;
22455;SDS011;11395;53.204;6.502;2022-12-07T16:23:09;5.90;;;1.23;;
22455;SDS011;11395;53.204;6.502;2022-12-07T16:25:35;1.57;;;1.10;;
22455;SDS011;11395;53.204;6.502;2022-12-07T16:28:01;1.70;;;1.40;;
22455;SDS011;11395;53.204;6.502;2022-12-07T16:30:27;1.00;;;1.00;;
22455;SDS011;11395;53.204;6.502;2022-12-07T16:32:54;3.43;;;1.53;;
22455;SDS011;11395;53.204;6.502;2022-12-07T16:35:20;1.33;;;1.10;;
22455;SDS011;11395;53.204;6.502;2022-12-07T16:37:46;4.07;;;1.50;;
22455;SDS011;11395;53.204;6.502;2022-12-07T16:40:13;10.17;;;2.50;;
22455;SDS011;11395;53.204;6.502;2022-12-07T16:42:39;11.77;;;2.70;;
22455;SDS011;11395;53.204;6.502;2022-12-07T16:45:05;9.83;;;3.63;;
22455;SDS011;11395;53.204;6.502;2022-12-07T16:47:32;13.13;;;7.87;;
22455;SDS011;11395;53.204;6.502;2022-12-07T16:49:58;28.60;;;22.50;;
22455;SDS011;11395;53.204;6.502;2022-12-07T16:52:24;28.13;;;23.37;;
22455;SDS011;11395;53.204;6.502;2022-12-07T16:54:50;28.53;;;25.33;;
22455;SDS011;11395;53.204;6.502;2022-12-07T16:57:17;23.63;;;21.17;;
22455;SDS011;11395;53.204;6.502;2022-12-07T16:59:43;24.90;;;22.27;;
22455;SDS011;11395;53.204;6.502;2022-12-07T17:02:10;24.90;;;22.30;;
22455;SDS011;11395;53.204;6.502;2022-12-07T17:04:37;26.17;;;23.57;;
22455;SDS011;11395;53.204;6.502;2022-12-07T17:07:08;28.80;;;25.80;;
22455;SDS011;11395;53.204;6.502;2022-12-07T17:09:34;29.43;;;25.47;;
22455;SDS011;11395;53.204;6.502;2022-12-07T17:12:01;27.90;;;25.03;;
22455;SDS011;11395;53.204;6.502;2022-12-07T17:14:28;29.90;;;24.37;;
22455;SDS011;11395;53.204;6.502;2022-12-07T17:17:12;23.83;;;21.40;;
22455;SDS011;11395;53.204;6.502;2022-12-07T17:19:38;29.30;;;22.10;;
22455;SDS011;11395;53.204;6.502;2022-12-07T17:22:05;24.30;;;21.80;;
22455;SDS011;11395;53.204;6.502;2022-12-07T17:24:32;23.53;;;21.20;;
22455;SDS011;11395;53.204;6.502;2022-12-07T17:26:58;22.63;;;20.37;;
22455;SDS011;11395;53.204;6.502;2022-12-07T17:29:24;22.90;;;19.93;;
22455;SDS011;11395;53.204;6.502;2022-12-07T17:31:52;19.73;;;17.73;;
22455;SDS011;11395;53.204;6.502;2022-12-07T17:34:28;19.67;;;17.77;;
22455;SDS011;11395;53.204;6.502;2022-12-07T17:37:02;17.63;;;15.80;;
22455;SDS011;11395;53.204;6.502;2022-12-07T17:39:29;20.03;;;16.33;;
22455;SDS011;11395;53.204;6.502;2022-12-07T17:41:55;16.93;;;15.07;;
22455;SDS011;11395;53.204;6.502;2022-12-07T17:44:40;16.60;;;14.90;;